Time;durP1;ratioP1;P1;durP2;ratioP2;P2;SDS_P1;SDS_P2;PMS_P1;PMS_P2;Temp;Humidity;BMP_temperature;BMP_pressure;BME280_temperature;BME280_humidity;BME280_pressure;Samples;Min_cycle;Max_cycle;Signal;HPM_P1;HPM_P2
2022/11/13 04:01:26;;;;;;;0.90;0.90;;;7.10;80.50;;;;;;5805875;22;21026;-72
2022/11/13 04:03:53;;;;;;;0.80;0.80;;;7.10;80.40;;;;;;5055729;28;20469;-72
2022/11/13 04:06:20;;;;;;;0.87;0.87;;;7.10;80.50;;;;;;5055312;28;20449;-72
2022/11/13 04:08:47;;;;;;;0.70;0.70;;;7.10;80.20;;;;;;5055312;28;20859;-72
2022/11/13 04:11:14;;;;;;;0.80;0.80;;;7.00;80.40;;;;;;5055480;28;20462;-72
2022/11/13 04:13:40;;;;;;;0.83;0.83;;;7.00;80.40;;;;;;5056948;28;20446;-72
2022/11/13 04:16:08;;;;;;;0.77;0.77;;;7.00;80.60;;;;;;5055452;28;20439;-72
2022/11/13 04:18:36;;;;;;;0.80;0.80;;;7.00;80.70;;;;;;5055325;28;20483;-72
2022/11/13 04:21:04;;;;;;;0.80;0.80;;;7.00;80.70;;;;;;5055293;28;20873;-72
2022/11/13 04:23:31;;;;;;;0.80;0.80;;;7.10;80.60;;;;;;5054444;28;20453;-72
2022/11/13 04:25:58;;;;;;;0.90;0.90;;;7.00;80.50;;;;;;5055183;28;20957;-72
2022/11/13 04:28:25;;;;;;;0.77;0.77;;;7.10;80.30;;;;;;5055201;28;20443;-72
2022/11/13 04:30:53;;;;;;;0.70;0.70;;;7.10;80.30;;;;;;5055121;28;20471;-72
2022/11/13 04:33:20;;;;;;;0.80;0.80;;;7.00;80.30;;;;;;5055092;28;20442;-72
2022/11/13 04:35:48;;;;;;;0.80;0.80;;;7.00;79.90;;;;;;5055025;28;20544;-71
2022/11/13 04:38:15;;;;;;;0.70;0.70;;;7.00;79.40;;;;;;5054657;28;20442;-72
2022/11/13 04:40:43;;;;;;;0.80;0.80;;;7.00;79.80;;;;;;5054571;28;20960;-72
2022/11/13 04:43:08;;;;;;;0.83;0.83;;;6.90;79.80;;;;;;5054888;28;20443;-73
2022/11/13 04:45:35;;;;;;;0.70;0.70;;;6.80;79.80;;;;;;5054880;28;20445;-72
2022/11/13 04:48:02;;;;;;;0.80;0.80;;;6.80;79.80;;;;;;5054821;28;20204;-72
2022/11/13 04:50:30;;;;;;;0.80;0.80;;;6.70;79.60;;;;;;5054721;28;20447;-72
2022/11/13 04:52:58;;;;;;;0.70;0.70;;;6.70;79.50;;;;;;5054717;28;20442;-72
2022/11/13 04:55:25;;;;;;;0.80;0.80;;;6.70;79.70;;;;;;5054690;28;20447;-72
2022/11/13 04:57:54;;;;;;;1.00;0.80;;;6.70;79.70;;;;;;5054614;28;20451;-72
2022/11/13 05:00:21;;;;;;;0.77;0.77;;;6.70;79.50;;;;;;5054534;28;20565;-71
2022/11/13 05:02:47;;;;;;;0.80;0.80;;;6.70;79.60;;;;;;5054329;28;20474;-72
2022/11/13 05:05:14;;;;;;;0.80;0.80;;;6.70;79.60;;;;;;5054213;28;20957;-72
2022/11/13 05:07:41;;;;;;;0.80;0.80;;;6.70;79.40;;;;;;5054452;28;20443;-72
2022/11/13 05:10:09;;;;;;;1.00;1.00;;;6.60;79.50;;;;;;5054358;28;20447;-72
2022/11/13 05:12:36;;;;;;;0.83;0.83;;;6.60;79.40;;;;;;5054275;28;20474;-72
2022/11/13 05:15:04;;;;;;;0.77;0.77;;;6.60;79.70;;;;;;5054012;28;20450;-72
2022/11/13 05:17:30;;;;;;;0.90;0.90;;;6.60;80.00;;;;;;5054216;28;20934;-72
2022/11/13 05:19:57;;;;;;;0.80;0.80;;;6.60;80.20;;;;;;5054157;28;20867;-71
2022/11/13 05:22:24;;;;;;;0.80;0.80;;;6.50;80.10;;;;;;5054111;28;20466;-72
2022/11/13 05:24:50;;;;;;;0.80;0.80;;;6.50;80.30;;;;;;5054110;28;20823;-72
2022/11/13 05:27:18;;;;;;;0.80;0.80;;;6.50;80.30;;;;;;5054053;28;20450;-72
2022/11/13 05:29:45;;;;;;;0.70;0.70;;;6.50;80.30;;;;;;5053723;28;20792;-71
2022/11/13 05:32:12;;;;;;;0.77;0.77;;;6.50;80.20;;;;;;5054097;28;20458;-72
2022/11/13 05:34:38;;;;;;;0.80;0.80;;;6.50;79.90;;;;;;5052877;28;20934;-72
2022/11/13 05:37:05;;;;;;;0.80;0.80;;;6.40;79.70;;;;;;5053856;28;20442;-72
2022/11/13 05:39:32;;;;;;;0.80;0.80;;;6.40;79.40;;;;;;5053488;28;21012;-72
2022/11/13 05:41:58;;;;;;;0.77;0.77;;;6.40;79.20;;;;;;5053739;28;20466;-72
2022/11/13 05:44:27;;;;;;;0.80;0.80;;;6.40;79.50;;;;;;5053772;28;20450;-72
2022/11/13 05:46:53;;;;;;;0.80;0.80;;;6.40;79.50;;;;;;5053716;28;20446;-72
2022/11/13 05:49:20;;;;;;;0.80;0.80;;;6.40;79.60;;;;;;5053725;28;20449;-72
2022/11/13 05:51:47;;;;;;;0.90;0.90;;;6.40;80.40;;;;;;5053245;28;20989;-72
2022/11/13 05:54:13;;;;;;;0.80;0.80;;;6.40;82.20;;;;;;5053636;28;20447;-72
2022/11/13 05:56:40;;;;;;;1.00;1.00;;;6.40;83.00;;;;;;5053270;28;20945;-72
2022/11/13 05:59:07;;;;;;;0.77;0.77;;;6.50;83.10;;;;;;5053516;28;20478;-72
2022/11/13 06:01:36;;;;;;;0.90;0.90;;;6.60;83.10;;;;;;5053287;28;20859;-72
2022/11/13 06:04:04;;;;;;;0.87;0.87;;;6.60;83.00;;;;;;5053488;28;20455;-71
2022/11/13 06:06:32;;;;;;;0.90;0.90;;;6.70;83.00;;;;;;5053454;28;20455;-72
2022/11/13 06:09:00;;;;;;;0.90;0.90;;;6.70;82.70;;;;;;5053781;28;20455;-71
2022/11/13 06:11:29;;;;;;;1.10;1.10;;;6.80;82.60;;;;;;5053350;28;20921;-71
2022/11/13 06:13:57;;;;;;;0.80;0.80;;;6.90;82.30;;;;;;5053603;28;20447;-71
2022/11/13 06:16:26;;;;;;;0.80;0.80;;;6.90;82.10;;;;;;5053375;28;20450;-71
2022/11/13 06:18:57;;;;;;;0.90;0.90;;;6.90;81.90;;;;;;5052928;28;20478;-72
2022/11/13 06:21:26;;;;;;;0.90;0.90;;;6.90;81.70;;;;;;5053236;28;20470;-73
2022/11/13 06:23:53;;;;;;;0.80;0.80;;;6.80;81.60;;;;;;5053259;28;20449;-71
2022/11/13 06:26:22;;;;;;;1.00;1.00;;;6.70;81.30;;;;;;5053221;28;20447;-72
2022/11/13 06:28:49;;;;;;;0.70;0.70;;;6.60;81.60;;;;;;5053192;28;20449;-71
2022/11/13 06:31:18;;;;;;;0.90;0.90;;;6.60;81.40;;;;;;5053129;28;20469;-72
2022/11/13 06:33:45;;;;;;;0.80;0.80;;;6.70;81.00;;;;;;5053177;28;20443;-72
2022/11/13 06:36:15;;;;;;;0.80;0.80;;;6.60;80.90;;;;;;5052821;28;20938;-73
2022/11/13 06:38:42;;;;;;;0.83;0.83;;;6.50;81.10;;;;;;5052712;28;20801;-72
2022/11/13 06:41:14;;;;;;;1.00;1.00;;;6.60;81.00;;;;;;5053043;28;20466;-72
2022/11/13 06:43:41;;;;;;;0.90;0.90;;;6.60;81.00;;;;;;5053112;28;20438;-72
2022/11/13 06:46:13;;;;;;;0.80;0.80;;;6.50;80.80;;;;;;5053715;28;20450;-72
2022/11/13 06:48:40;;;;;;;0.70;0.70;;;6.20;81.30;;;;;;5057119;28;20485;-72
2022/11/13 06:51:11;;;;;;;0.87;0.87;;;6.30;81.40;;;;;;5056960;28;20478;-72
2022/11/13 06:53:39;;;;;;;0.80;0.80;;;6.60;81.90;;;;;;5057007;28;20453;-72
2022/11/13 06:56:07;;;;;;;0.73;0.73;;;7.00;80.10;;;;;;5056939;28;20446;-72
2022/11/13 06:58:34;;;;;;;0.70;0.70;;;7.80;78.10;;;;;;5056919;28;20442;-72
2022/11/13 07:01:05;;;;;;;0.70;0.70;;;8.80;74.90;;;;;;5056659;28;20512;-72
2022/11/13 07:03:32;;;;;;;0.80;0.80;;;9.90;71.50;;;;;;5056890;28;20434;-73
2022/11/13 07:06:01;;;;;;;0.80;0.80;;;10.90;68.10;;;;;;5056780;28;20501;-73
2022/11/13 07:08:28;;;;;;;0.80;0.70;;;12.10;63.80;;;;;;5056748;28;20446;-73
2022/11/13 07:10:57;;;;;;;0.70;0.70;;;13.10;61.10;;;;;;5056322;28;20962;-72
2022/11/13 07:13:24;;;;;;;0.77;0.77;;;14.30;58.70;;;;;;5056691;28;20450;-74
2022/11/13 07:15:51;;;;;;;0.70;0.70;;;15.30;55.50;;;;;;5056638;28;20454;-74
2022/11/13 07:18:18;;;;;;;0.70;0.70;;;16.20;53.80;;;;;;5056551;28;20450;-72
2022/11/13 07:20:45;;;;;;;0.70;0.70;;;16.70;52.20;;;;;;5056502;28;20490;-73
2022/11/13 07:23:11;;;;;;;0.70;0.70;;;17.00;51.50;;;;;;5056418;28;20457;-73
2022/11/13 07:25:38;;;;;;;0.80;0.80;;;17.30;50.70;;;;;;5056405;28;20454;-73
2022/11/13 07:28:06;;;;;;;0.80;0.80;;;17.50;49.80;;;;;;5056318;28;20453;-73
2022/11/13 07:30:33;;;;;;;0.80;0.80;;;17.70;49.20;;;;;;5055933;28;20438;-73
2022/11/13 07:33:02;;;;;;;0.70;0.70;;;17.60;49.10;;;;;;5056234;28;20453;-73
2022/11/13 07:35:29;;;;;;;0.70;0.70;;;17.40;49.30;;;;;;5056232;28;20785;-74
2022/11/13 07:37:55;;;;;;;0.70;0.70;;;17.30;49.80;;;;;;5056193;28;20454;-73
2022/11/13 07:40:22;;;;;;;0.70;0.70;;;17.30;50.10;;;;;;5056043;28;20485;-72
2022/11/13 07:42:56;;;;;;;0.70;0.70;;;18.00;49.20;;;;;;5056124;28;20453;-72
2022/11/13 07:45:26;;;;;;;0.70;0.67;;;19.40;47.20;;;;;;5055827;28;20438;-73
2022/11/13 07:47:57;;;;;;;0.67;0.67;;;20.50;44.60;;;;;;5056083;28;20839;-73
2022/11/13 07:50:24;;;;;;;0.60;0.60;;;21.40;43.70;;;;;;5055613;28;20935;-72
2022/11/13 07:52:55;;;;;;;0.73;0.73;;;22.10;42.00;;;;;;5055617;28;20970;-73
2022/11/13 07:55:22;;;;;;;0.67;0.67;;;22.60;41.50;;;;;;5055563;28;20442;-73
2022/11/13 07:57:48;;;;;;;0.80;0.80;;;23.20;40.50;;;;;;5054852;28;20455;-73
2022/11/13 08:00:16;;;;;;;0.90;0.90;;;23.60;39.80;;;;;;5055400;28;20985;-72
2022/11/13 08:02:46;;;;;;;0.70;0.70;;;23.90;39.40;;;;;;5055374;28;20990;-72
2022/11/13 08:05:13;;;;;;;0.80;0.80;;;24.30;39.10;;;;;;5055696;28;20813;-73
2022/11/13 08:07:40;;;;;;;0.70;0.70;;;23.60;39.60;;;;;;5055896;28;20447;-73
2022/11/13 08:10:07;;;;;;;0.70;0.70;;;23.20;39.80;;;;;;5055284;28;20834;-71
2022/11/13 08:12:34;;;;;;;0.80;0.80;;;21.70;42.00;;;;;;5055546;28;20470;-71
2022/11/13 08:15:01;;;;;;;0.70;0.70;;;20.00;44.70;;;;;;5055587;28;20450;-73
2022/11/13 08:17:27;;;;;;;0.93;0.90;;;18.90;46.80;;;;;;5055545;28;20442;-73
2022/11/13 08:19:55;;;;;;;0.80;0.80;;;17.60;49.40;;;;;;5055081;28;20485;-73
2022/11/13 08:22:22;;;;;;;2.43;0.90;;;16.00;52.30;;;;;;5055381;28;20471;-74
2022/11/13 08:24:52;;;;;;;0.80;0.80;;;14.80;55.10;;;;;;5055051;28;20956;-73
2022/11/13 08:27:19;;;;;;;0.80;0.80;;;13.70;58.30;;;;;;5055897;28;20455;-72
2022/11/13 08:29:45;;;;;;;0.93;0.93;;;12.90;60.90;;;;;;5055226;28;20438;-71
2022/11/13 08:32:14;;;;;;;1.10;1.10;;;12.50;62.30;;;;;;5054827;28;20471;-72
2022/11/13 08:34:41;;;;;;;0.80;0.80;;;12.30;63.70;;;;;;5054805;28;20870;-73
2022/11/13 08:37:09;;;;;;;0.80;0.80;;;11.90;65.90;;;;;;5055110;28;20450;-73
2022/11/13 08:39:36;;;;;;;0.80;0.80;;;11.70;67.30;;;;;;5054993;28;20479;-72
2022/11/13 08:42:03;;;;;;;1.37;0.90;;;11.30;68.40;;;;;;5054575;28;21001;-71
2022/11/13 08:44:29;;;;;;;0.80;0.80;;;10.90;69.90;;;;;;5054628;28;21000;-72
2022/11/13 08:46:56;;;;;;;0.90;0.90;;;10.70;71.10;;;;;;5054945;28;20446;-71
2022/11/13 08:49:23;;;;;;;0.70;0.70;;;9.90;72.70;;;;;;5054835;28;20447;-72
2022/11/13 08:51:50;;;;;;;0.90;0.90;;;9.20;74.30;;;;;;5054735;28;20463;-71
2022/11/13 08:54:19;;;;;;;0.80;0.80;;;8.70;76.50;;;;;;5054742;28;20451;-73
2022/11/13 08:56:47;;;;;;;1.10;0.97;;;8.30;77.50;;;;;;5054961;28;20533;-72
2022/11/13 08:59:14;;;;;;;1.07;1.07;;;8.10;79.60;;;;;;5054801;28;20451;-71
2022/11/13 09:01:41;;;;;;;0.80;0.80;;;7.90;80.30;;;;;;5054400;28;20478;-71
2022/11/13 09:04:08;;;;;;;1.53;1.00;;;7.90;81.20;;;;;;5054495;28;20454;-72
2022/11/13 09:06:35;;;;;;;1.10;1.00;;;7.80;81.60;;;;;;5054162;28;20969;-72
2022/11/13 09:09:02;;;;;;;1.00;1.00;;;7.60;82.60;;;;;;5054019;28;20921;-72
2022/11/13 09:11:30;;;;;;;0.80;0.80;;;7.80;83.60;;;;;;5054046;28;20839;-73
2022/11/13 09:13:56;;;;;;;0.80;0.80;;;7.90;83.20;;;;;;5054358;28;20454;-72
2022/11/13 09:16:23;;;;;;;0.90;0.90;;;8.20;83.10;;;;;;5053959;28;20961;-72
2022/11/13 09:18:50;;;;;;;1.00;1.00;;;8.40;82.00;;;;;;5054255;28;20458;-72
2022/11/13 09:21:17;;;;;;;1.00;1.00;;;8.60;81.40;;;;;;5054072;28;20573;-71
2022/11/13 09:23:44;;;;;;;0.80;0.80;;;8.70;79.30;;;;;;5054169;28;20446;-72
2022/11/13 09:26:11;;;;;;;0.80;0.80;;;8.60;78.80;;;;;;5054130;28;20450;-72
2022/11/13 09:28:39;;;;;;;0.80;0.80;;;8.50;80.70;;;;;;5054095;28;20521;-72
2022/11/13 09:31:07;;;;;;;0.90;0.90;;;8.40;78.70;;;;;;5054155;28;20474;-72
2022/11/13 09:33:34;;;;;;;0.67;0.67;;;8.70;79.20;;;;;;5054043;28;20527;-72
2022/11/13 09:36:01;;;;;;;0.70;0.70;;;8.80;78.40;;;;;;5054035;28;20473;-72
2022/11/13 09:38:30;;;;;;;0.90;0.90;;;8.80;77.50;;;;;;5053614;28;20450;-72
2022/11/13 09:41:01;;;;;;;1.00;1.00;;;8.80;77.50;;;;;;5053787;28;20486;-72
2022/11/13 09:43:34;;;;;;;0.90;0.90;;;8.80;76.80;;;;;;5053584;28;20944;-73
2022/11/13 09:46:07;;;;;;;0.70;0.70;;;8.90;76.20;;;;;;5053807;28;20470;-72
2022/11/13 09:48:36;;;;;;;0.90;0.90;;;8.90;76.60;;;;;;5053806;28;20434;-72
2022/11/13 09:51:07;;;;;;;0.80;0.80;;;8.80;76.90;;;;;;5053920;28;20458;-72
2022/11/13 09:53:37;;;;;;;0.83;0.83;;;8.90;77.90;;;;;;5053696;28;20435;-72
2022/11/13 09:56:14;;;;;;;0.70;0.70;;;9.00;77.50;;;;;;5053670;28;20451;-71
2022/11/13 09:58:48;;;;;;;1.00;1.00;;;8.90;77.30;;;;;;5053628;28;20442;-72
2022/11/13 10:01:24;;;;;;;1.00;1.00;;;9.00;78.50;;;;;;5053152;28;20494;-72
2022/11/13 10:03:58;;;;;;;0.90;0.90;;;9.20;78.20;;;;;;5053583;28;20501;-72
2022/11/13 10:06:34;;;;;;;0.90;0.90;;;9.30;78.90;;;;;;5053551;28;20427;-72
2022/11/13 10:09:10;;;;;;;0.97;0.97;;;9.30;77.70;;;;;;5053546;28;20438;-72
2022/11/13 10:11:40;;;;;;;1.10;1.10;;;9.20;77.00;;;;;;5053373;28;20458;-72
2022/11/13 10:14:16;;;;;;;1.00;1.00;;;9.40;78.40;;;;;;5054924;28;20427;-72
2022/11/13 10:16:49;;;;;;;0.90;0.90;;;9.50;78.70;;;;;;5053376;28;20427;-72
2022/11/13 10:19:22;;;;;;;0.90;0.90;;;9.50;77.30;;;;;;5053389;28;20471;-72
2022/11/13 10:21:52;;;;;;;1.07;1.07;;;9.50;76.30;;;;;;5052665;28;20490;-73
2022/11/13 10:24:25;;;;;;;1.30;1.20;;;9.30;76.20;;;;;;5053340;28;20431;-72
2022/11/13 10:26:53;;;;;;;1.10;1.10;;;9.20;77.80;;;;;;5053314;28;20438;-72
2022/11/13 10:29:20;;;;;;;0.83;0.83;;;9.30;77.80;;;;;;5053236;28;20470;-73
2022/11/13 10:31:50;;;;;;;0.97;0.97;;;9.40;76.40;;;;;;5053353;28;20459;-73
2022/11/13 10:34:19;;;;;;;1.00;1.00;;;9.30;75.30;;;;;;5053168;28;20814;-72
2022/11/13 10:36:58;;;;;;;0.90;0.90;;;9.30;76.20;;;;;;5053100;28;20442;-72
2022/11/13 10:39:25;;;;;;;0.80;0.80;;;9.30;75.70;;;;;;5053212;28;20423;-72
2022/11/13 10:41:54;;;;;;;0.80;0.80;;;9.20;76.00;;;;;;5052964;28;20493;-72
2022/11/13 10:44:33;;;;;;;0.90;0.90;;;9.30;75.60;;;;;;5053094;28;20454;-72
2022/11/13 10:47:15;;;;;;;1.00;1.00;;;9.30;75.60;;;;;;5052830;28;20442;-72
2022/11/13 10:49:41;;;;;;;0.90;0.90;;;9.30;75.50;;;;;;5053029;28;20438;-72
2022/11/13 10:52:18;;;;;;;0.87;0.87;;;9.50;75.40;;;;;;5052911;28;20455;-72
2022/11/13 10:54:45;;;;;;;1.10;1.10;;;9.70;74.60;;;;;;5053518;28;20442;-72
2022/11/13 10:57:28;;;;;;;0.97;0.97;;;9.70;74.50;;;;;;5052984;28;20450;-72
2022/11/13 10:59:56;;;;;;;0.90;0.90;;;9.70;74.80;;;;;;5052936;28;20443;-72
2022/11/13 11:02:25;;;;;;;0.80;0.80;;;9.90;74.30;;;;;;5052747;28;20548;-72
2022/11/13 11:05:02;;;;;;;0.90;0.90;;;9.80;74.30;;;;;;5052586;28;20952;-73
2022/11/13 11:07:29;;;;;;;0.87;0.87;;;9.70;74.20;;;;;;5052899;28;20430;-72
2022/11/13 11:09:56;;;;;;;1.03;1.03;;;9.80;74.10;;;;;;5052882;28;20442;-71
2022/11/13 11:12:23;;;;;;;0.90;0.90;;;9.80;74.40;;;;;;5052786;28;20466;-72
2022/11/13 11:15:06;;;;;;;0.90;0.90;;;9.80;74.90;;;;;;5052894;28;20446;-73
2022/11/13 11:17:38;;;;;;;1.33;1.23;;;9.90;74.00;;;;;;5053060;28;20458;-72
2022/11/13 11:20:13;;;;;;;1.03;0.80;;;9.90;74.30;;;;;;5052696;28;20423;-72
2022/11/13 11:22:41;;;;;;;1.00;1.00;;;9.90;73.70;;;;;;5052361;28;20470;-72
2022/11/13 11:25:16;;;;;;;1.03;1.03;;;9.90;75.00;;;;;;5052836;28;20455;-73
2022/11/13 11:27:47;;;;;;;0.90;0.90;;;10.10;74.90;;;;;;5052782;28;20438;-73
2022/11/13 11:30:19;;;;;;;0.70;0.70;;;10.20;73.70;;;;;;5052656;28;20447;-72
2022/11/13 11:32:52;;;;;;;1.00;1.00;;;10.20;73.90;;;;;;5052628;28;20470;-72
2022/11/13 11:35:23;;;;;;;1.00;1.00;;;10.30;73.60;;;;;;5056238;28;20439;-73
2022/11/13 11:37:57;;;;;;;0.90;0.90;;;10.40;73.30;;;;;;5056247;28;20427;-72
2022/11/13 11:40:29;;;;;;;0.80;0.80;;;10.30;73.00;;;;;;5056150;28;20466;-73
2022/11/13 11:43:03;;;;;;;0.97;0.97;;;10.40;72.90;;;;;;5056147;28;20427;-72
2022/11/13 11:45:34;;;;;;;0.87;0.87;;;10.70;72.60;;;;;;5056108;28;20434;-73
2022/11/13 11:48:05;;;;;;;1.00;1.00;;;10.80;72.50;;;;;;5056561;28;20826;-73
2022/11/13 11:50:38;;;;;;;0.90;0.90;;;10.90;72.80;;;;;;5055905;28;20441;-73
2022/11/13 11:53:13;;;;;;;1.00;1.00;;;11.20;71.90;;;;;;5055679;28;20907;-73
2022/11/13 11:56:00;;;;;;;0.80;0.80;;;11.80;71.00;;;;;;5055998;28;20435;-72
2022/11/13 11:58:47;;;;;;;1.00;1.00;;;13.30;66.10;;;;;;5055872;28;20435;-72
2022/11/13 12:01:25;;;;;;;0.80;0.80;;;15.70;61.90;;;;;;5055486;28;20490;-73
2022/11/13 12:04:05;;;;;;;0.90;0.90;;;18.40;53.90;;;;;;5055664;28;20453;-73
2022/11/13 12:06:43;;;;;;;0.73;0.73;;;20.60;49.10;;;;;;5055295;28;20822;-73
2022/11/13 12:09:19;;;;;;;0.80;0.80;;;22.80;45.10;;;;;;5055654;28;20439;-72
2022/11/13 12:11:52;;;;;;;0.80;0.80;;;24.80;42.20;;;;;;5055559;28;20481;-73
2022/11/13 12:14:27;;;;;;;0.80;0.80;;;26.30;40.60;;;;;;5055639;28;20450;-73
2022/11/13 12:17:10;;;;;;;0.80;0.80;;;27.80;37.50;;;;;;5055207;28;20442;-72
2022/11/13 12:19:51;;;;;;;0.90;0.90;;;29.10;36.20;;;;;;5055448;28;20843;-72
2022/11/13 12:22:38;;;;;;;0.80;0.80;;;30.30;34.40;;;;;;5055264;28;20486;-73
2022/11/13 12:25:19;;;;;;;0.70;0.70;;;31.80;33.10;;;;;;5055417;28;20435;-73
2022/11/13 12:27:53;;;;;;;0.87;0.87;;;32.70;31.20;;;;;;5055350;28;20763;-73
2022/11/13 12:30:22;;;;;;;0.70;0.70;;;31.60;31.70;;;;;;5055297;28;20431;-73
2022/11/13 12:33:02;;;;;;;0.80;0.80;;;30.80;33.00;;;;;;5055121;28;20474;-73
2022/11/13 12:35:30;;;;;;;0.80;0.80;;;31.40;32.70;;;;;;5055218;28;20435;-73
2022/11/13 12:38:04;;;;;;;0.70;0.70;;;32.10;31.20;;;;;;5055116;28;20469;-72
2022/11/13 12:40:36;;;;;;;0.70;0.60;;;32.70;32.00;;;;;;5054946;28;20441;-74
2022/11/13 12:43:24;;;;;;;0.70;0.70;;;33.80;30.00;;;;;;5055017;28;20797;-73
2022/11/13 12:45:53;;;;;;;0.70;0.70;;;33.00;30.20;;;;;;5054291;28;20431;-73
2022/11/13 12:48:33;;;;;;;0.70;0.70;;;33.20;30.50;;;;;;5054903;28;20454;-73
2022/11/13 12:51:03;;;;;;;0.70;0.70;;;32.80;31.20;;;;;;5054799;28;20528;-73
2022/11/13 12:53:31;;;;;;;0.70;0.70;;;32.30;30.90;;;;;;5054788;28;20451;-73
2022/11/13 12:56:00;;;;;;;0.70;0.70;;;31.80;31.50;;;;;;5054757;28;20442;-73
2022/11/13 12:58:29;;;;;;;0.60;0.60;;;32.40;31.10;;;;;;5054703;28;20447;-73
2022/11/13 13:01:02;;;;;;;0.73;0.73;;;32.60;30.60;;;;;;5054271;28;20501;-73
2022/11/13 13:03:51;;;;;;;0.80;0.70;;;32.70;30.90;;;;;;5054637;28;20485;-73
2022/11/13 13:06:40;;;;;;;0.70;0.60;;;32.80;30.50;;;;;;5054551;28;20427;-73
2022/11/13 13:09:22;;;;;;;0.73;0.73;;;33.00;29.60;;;;;;5054668;28;20431;-73
2022/11/13 13:12:00;;;;;;;0.70;0.60;;;32.10;31.00;;;;;;5054332;28;20463;-73
2022/11/13 13:14:45;;;;;;;0.80;0.80;;;32.80;30.90;;;;;;5054470;28;20431;-72
2022/11/13 13:17:21;;;;;;;0.70;0.70;;;34.20;29.80;;;;;;5054366;28;20423;-73
2022/11/13 13:19:58;;;;;;;0.70;0.70;;;35.30;28.10;;;;;;5054243;28;20454;-71
2022/11/13 13:22:29;;;;;;;0.70;0.70;;;35.40;28.30;;;;;;5054141;28;20574;-72
2022/11/13 13:25:02;;;;;;;0.70;0.60;;;36.30;27.60;;;;;;5054259;28;20438;-74
2022/11/13 13:27:32;;;;;;;0.70;0.70;;;37.10;26.60;;;;;;5054385;28;20446;-73
2022/11/13 13:29:59;;;;;;;0.70;0.70;;;35.60;27.40;;;;;;5054165;28;20438;-74
2022/11/13 13:32:36;;;;;;;0.80;0.80;;;35.10;27.80;;;;;;5053933;28;20463;-73
2022/11/13 13:35:11;;;;;;;0.70;0.60;;;34.10;28.30;;;;;;5053706;28;20445;-73
2022/11/13 13:37:47;;;;;;;0.70;0.70;;;33.00;29.10;;;;;;5053744;28;20853;-74
2022/11/13 13:40:29;;;;;;;0.70;0.70;;;32.10;30.40;;;;;;5053921;28;20434;-73
2022/11/13 13:43:13;;;;;;;0.70;0.63;;;32.90;30.60;;;;;;5053839;28;20486;-74
2022/11/13 13:45:50;;;;;;;0.90;0.80;;;33.90;29.80;;;;;;5053816;28;20481;-73
2022/11/13 13:48:23;;;;;;;0.70;0.70;;;34.50;29.20;;;;;;5053772;28;20438;-74
2022/11/13 13:50:51;;;;;;;0.70;0.70;;;35.40;28.70;;;;;;5053693;28;20546;-73
2022/11/13 13:53:23;;;;;;;0.73;0.73;;;36.30;28.10;;;;;;5053724;28;20454;-74
2022/11/13 13:55:52;;;;;;;0.80;0.60;;;37.10;27.40;;;;;;5052946;28;20435;-74
2022/11/13 13:58:23;;;;;;;0.73;0.73;;;37.50;27.10;;;;;;5053307;28;20951;-73
2022/11/13 14:00:58;;;;;;;0.80;0.80;;;37.70;26.70;;;;;;5053397;28;20474;-72
2022/11/13 14:03:26;;;;;;;1.37;0.70;;;37.80;26.60;;;;;;5053584;28;20505;-73
2022/11/13 14:05:53;;;;;;;0.70;0.70;;;37.70;26.50;;;;;;5053502;28;20463;-74
2022/11/13 14:08:23;;;;;;;0.90;0.90;;;37.80;26.70;;;;;;5053359;28;20454;-74
2022/11/13 14:10:51;;;;;;;0.70;0.70;;;38.00;26.50;;;;;;5053390;28;20506;-73
2022/11/13 14:13:24;;;;;;;0.80;0.80;;;38.10;26.50;;;;;;5053692;28;20520;-74
2022/11/13 14:16:01;;;;;;;0.70;0.70;;;38.10;26.40;;;;;;5053427;28;20441;-75
2022/11/13 14:18:28;;;;;;;0.80;0.80;;;37.90;26.30;;;;;;5053826;28;20442;-74
2022/11/13 14:20:56;;;;;;;0.70;0.70;;;37.60;26.40;;;;;;5053153;28;20466;-74
2022/11/13 14:23:27;;;;;;;0.77;0.77;;;36.60;27.00;;;;;;5053297;28;20451;-74
2022/11/13 14:25:55;;;;;;;0.70;0.70;;;34.70;28.50;;;;;;5053210;28;20850;-75
2022/11/13 14:28:24;;;;;;;0.80;0.80;;;32.50;30.40;;;;;;5053120;28;20446;-74
2022/11/13 14:30:56;;;;;;;0.80;0.80;;;30.30;32.70;;;;;;5053160;28;20467;-74
2022/11/13 14:33:27;;;;;;;0.80;0.80;;;28.40;35.00;;;;;;5053425;28;20461;-74
2022/11/13 14:35:56;;;;;;;0.90;0.90;;;26.70;37.00;;;;;;5052867;28;20437;-74
2022/11/13 14:38:27;;;;;;;1.00;1.00;;;25.30;39.20;;;;;;5053112;28;20453;-74
2022/11/13 14:40:54;;;;;;;0.90;0.90;;;24.00;41.40;;;;;;5052666;28;20981;-74
2022/11/13 14:43:23;;;;;;;0.90;0.90;;;22.80;43.20;;;;;;5052775;28;20943;-74
2022/11/13 14:45:55;;;;;;;0.80;0.80;;;21.70;45.30;;;;;;5053035;28;20469;-73
2022/11/13 14:48:24;;;;;;;0.77;0.77;;;20.80;47.00;;;;;;5052786;28;20905;-74
2022/11/13 14:50:53;;;;;;;0.87;0.87;;;20.00;48.60;;;;;;5052967;28;20474;-74
2022/11/13 14:53:29;;;;;;;0.80;0.80;;;19.30;49.90;;;;;;5052992;28;20454;-74
2022/11/13 14:55:58;;;;;;;0.80;0.80;;;18.50;51.40;;;;;;5053022;28;20438;-74
2022/11/13 14:58:29;;;;;;;1.10;1.00;;;17.90;52.70;;;;;;5052934;28;20579;-73
2022/11/13 15:00:57;;;;;;;0.90;0.90;;;17.40;53.80;;;;;;5052461;28;20470;-73
2022/11/13 15:03:27;;;;;;;0.83;0.83;;;16.90;55.00;;;;;;5052808;28;20521;-74
2022/11/13 15:05:53;;;;;;;1.00;1.00;;;16.50;56.00;;;;;;5052856;28;20486;-73
2022/11/13 15:08:20;;;;;;;1.00;1.00;;;16.20;57.10;;;;;;5055129;28;20442;-74
2022/11/13 15:10:57;;;;;;;1.30;1.20;;;15.90;57.80;;;;;;5056649;28;20466;-73
2022/11/13 15:13:24;;;;;;;0.93;0.93;;;15.60;58.50;;;;;;5056699;28;20426;-73
2022/11/13 15:15:51;;;;;;;0.90;0.90;;;15.40;59.20;;;;;;5056677;28;20454;-73
2022/11/13 15:18:19;;;;;;;0.97;0.97;;;15.20;59.80;;;;;;5056274;28;20942;-73
2022/11/13 15:20:46;;;;;;;1.13;1.13;;;15.00;60.80;;;;;;5056173;28;21003;-74
2022/11/13 15:23:15;;;;;;;1.00;1.00;;;14.80;61.30;;;;;;5056113;28;20997;-74
2022/11/13 15:25:42;;;;;;;1.20;1.20;;;14.70;61.60;;;;;;5056475;28;20520;-74
2022/11/13 15:28:10;;;;;;;1.20;1.10;;;14.60;62.00;;;;;;5056446;28;20451;-74
2022/11/13 15:30:37;;;;;;;1.67;1.57;;;14.40;62.40;;;;;;5056297;28;20453;-73
2022/11/13 15:33:12;;;;;;;0.90;0.90;;;14.30;63.00;;;;;;5056546;28;20446;-74
2022/11/13 15:35:38;;;;;;;1.50;1.40;;;14.10;63.70;;;;;;5056553;28;20430;-73
2022/11/13 15:38:05;;;;;;;1.30;1.27;;;14.00;64.10;;;;;;5056215;28;20443;-73
2022/11/13 15:40:32;;;;;;;1.20;1.20;;;13.90;64.60;;;;;;5056096;28;20454;-73
2022/11/13 15:43:00;;;;;;;1.50;1.40;;;13.70;65.10;;;;;;5056141;28;20482;-74
2022/11/13 15:45:28;;;;;;;1.00;1.00;;;13.60;65.50;;;;;;5056177;28;20938;-74
2022/11/13 15:47:55;;;;;;;1.37;1.27;;;13.50;65.60;;;;;;5056843;28;20443;-76
2022/11/13 15:50:22;;;;;;;1.00;1.00;;;13.40;66.30;;;;;;5056262;28;20805;-72
2022/11/13 15:52:51;;;;;;;1.10;1.10;;;13.20;66.70;;;;;;5056578;28;20458;-72
2022/11/13 15:55:26;;;;;;;1.00;1.00;;;13.20;67.80;;;;;;5056289;28;20446;-74
2022/11/13 15:57:54;;;;;;;1.00;1.00;;;13.10;67.70;;;;;;5056010;28;20426;-75
2022/11/13 16:00:24;;;;;;;1.07;1.07;;;13.00;67.60;;;;;;5055793;28;20451;-75
2022/11/13 16:02:54;;;;;;;1.03;1.03;;;12.90;67.80;;;;;;5057113;28;20544;-73
2022/11/13 16:05:23;;;;;;;1.20;1.10;;;12.90;67.90;;;;;;5056061;28;20451;-73
2022/11/13 16:07:51;;;;;;;1.00;1.00;;;12.80;68.00;;;;;;5055885;28;20450;-73
2022/11/13 16:10:18;;;;;;;1.00;1.00;;;12.70;68.50;;;;;;5055776;28;20450;-74
2022/11/13 16:12:45;;;;;;;1.00;1.00;;;12.60;68.70;;;;;;5055607;28;20467;-76
2022/11/13 16:15:15;;;;;;;1.40;1.30;;;12.50;69.00;;;;;;5057103;28;20454;-74
2022/11/13 16:17:46;;;;;;;1.03;1.03;;;12.30;69.30;;;;;;5055358;28;20451;-75
2022/11/13 16:20:16;;;;;;;1.00;1.00;;;12.20;69.60;;;;;;5054845;28;20430;-75
2022/11/13 16:22:44;;;;;;;1.20;1.20;;;12.10;70.10;;;;;;5055452;28;20497;-76
2022/11/13 16:25:12;;;;;;;1.23;1.23;;;12.00;70.30;;;;;;5055694;28;20453;-75
2022/11/13 16:27:39;;;;;;;1.87;1.77;;;11.90;70.60;;;;;;5059448;28;20938;-75
2022/11/13 16:30:12;;;;;;;1.50;1.40;;;11.80;70.90;;;;;;5062836;28;20447;-76
2022/11/13 16:32:39;;;;;;;1.30;1.30;;;11.70;71.50;;;;;;5060690;28;20459;-73
2022/11/13 16:35:07;;;;;;;1.37;1.27;;;11.70;71.70;;;;;;5060915;28;20461;-73
2022/11/13 16:37:35;;;;;;;1.70;1.60;;;11.60;71.80;;;;;;5060717;28;20490;-73
2022/11/13 16:40:02;;;;;;;1.57;1.57;;;11.50;71.90;;;;;;5059454;28;20447;-72
2022/11/13 16:42:29;;;;;;;1.80;1.70;;;11.50;72.10;;;;;;5056705;28;20509;-73
2022/11/13 16:44:55;;;;;;;1.20;1.20;;;11.50;72.10;;;;;;5054722;28;20946;-72
2022/11/13 16:47:24;;;;;;;1.10;1.10;;;11.50;72.00;;;;;;5055072;28;20451;-74
2022/11/13 16:49:51;;;;;;;1.10;1.10;;;11.40;72.40;;;;;;5054878;28;20451;-73
2022/11/13 16:52:18;;;;;;;1.40;1.30;;;11.40;72.50;;;;;;5054988;28;20470;-74
2022/11/13 16:54:46;;;;;;;1.20;1.10;;;11.30;72.60;;;;;;5054897;28;20447;-73
2022/11/13 16:57:15;;;;;;;0.90;0.90;;;11.30;72.60;;;;;;5054775;28;20447;-72
2022/11/13 16:59:42;;;;;;;1.03;1.03;;;11.20;72.80;;;;;;5054769;28;20489;-71
2022/11/13 17:02:14;;;;;;;0.80;0.80;;;11.10;73.00;;;;;;5054347;28;20497;-72
2022/11/13 17:04:41;;;;;;;1.40;1.30;;;11.10;72.90;;;;;;5054707;28;20435;-73